リヴァプール の空港の天気 - METARとTAF

リバプール・ジョン・レノン空港 ( EGGP / LPL ) - イギリス リヴァプール
飛行場実況気象(Metar)
観測時間04/10 10:20 BST (04/10 09:20 UTC)
風向・風速南東 4m/s
視程10km以上
天気現象
なし
気温13℃
湿度82%
気圧1024hPa
METAREGGP 100920Z 14007KT 100V170 CAVOK 13/10 Q1024
過去の天気等 Google飛行場航空写真 Wunderground天気予報

過去48時間のMETAR

飛行場予報(TAF)
発表時間: 4/10 09:31 BST (4/10 08:31 UTC)
予報対象時間: 10日9時 BST ~ 11日7時 BST
風向・風速東南東 3m/s
視程10km以上
少しの雲 雲底高度 1220m
10日9時 BST ~ 10日11時 BST に一時的に
視程9000m
10日10時 BST ~ 10日13時 BST に徐々に
風向・風速南 5m/s
10日16時 BST ~ 10日22時 BST に一時的に
視程6000m
天気現象しゅう雨
10日16時 BST ~ 10日22時 BST に 確率 30% で一時的に
視程4000m
天気現象強いしゅう雨
11日1時 BST から 確率 30% で
視程8000m
TAF AMD EGGP 100831Z 1008/1106 11006KT 9999 FEW040
TEMPO 1008/1010 9000
BECMG 1009/1012 17010KT
TEMPO 1015/1021 6000 SHRA
PROB30 TEMPO 1015/1021 4000 +SHRA
PROB30 1100/1106 8000